createdAt,value
2018-12-06T00:00:35.793Z,7.08
2018-12-06T00:03:06.413Z,10.23
2018-12-06T00:05:37.048Z,14.87
2018-12-06T00:08:19.528Z,10.53
2018-12-06T00:10:50.683Z,18.27
2018-12-06T00:13:20.931Z,11.95
2018-12-06T00:15:51.854Z,8.73
2018-12-06T00:18:22.441Z,12.83
2018-12-06T00:20:52.611Z,8.10
2018-12-06T00:23:23.694Z,10.15
2018-12-06T00:25:54.753Z,15.00
2018-12-06T00:28:30.954Z,13.40
2018-12-06T00:31:03.251Z,12.60
2018-12-06T00:33:34.830Z,6.90
2018-12-06T00:36:06.712Z,9.13
2018-12-06T00:38:37.849Z,16.23
2018-12-06T00:41:16.467Z,7.90
2018-12-06T00:43:47.799Z,7.40
2018-12-06T00:46:18.498Z,7.55
2018-12-06T00:48:48.850Z,12.97
2018-12-06T00:51:19.623Z,11.33
2018-12-06T00:53:49.755Z,10.87
2018-12-06T00:56:23.657Z,11.10
2018-12-06T00:58:55.090Z,10.53
2018-12-06T01:01:27.888Z,7.28
2018-12-06T01:03:58.008Z,14.43
2018-12-06T01:06:29.012Z,16.20
2018-12-06T01:09:00.138Z,16.20
2018-12-06T01:11:31.123Z,17.37
2018-12-06T01:14:03.861Z,9.37
2018-12-06T01:16:35.509Z,8.60
2018-12-06T01:19:09.243Z,12.70
2018-12-06T01:21:40.851Z,11.50
2018-12-06T01:24:12.635Z,8.30
2018-12-06T01:26:43.429Z,10.40
2018-12-06T01:29:13.964Z,26.73
2018-12-06T01:31:44.972Z,11.70
2018-12-06T01:34:15.513Z,8.83
2018-12-06T01:36:46.316Z,8.63
2018-12-06T01:39:17.208Z,11.48
2018-12-06T01:41:48.119Z,13.00
2018-12-06T01:44:19.128Z,7.13
2018-12-06T01:46:49.636Z,12.83
2018-12-06T01:49:26.127Z,11.55
2018-12-06T01:51:57.366Z,8.40
2018-12-06T01:54:28.317Z,9.50
2018-12-06T01:56:58.430Z,13.00
2018-12-06T01:59:29.375Z,12.33
2018-12-06T02:02:02.187Z,9.58
2018-12-06T02:04:35.763Z,10.67
2018-12-06T02:18:00.710Z,11.28
2018-12-06T02:23:10.754Z,14.65
2018-12-06T02:25:43.319Z,16.93
2018-12-06T02:28:15.023Z,12.23
2018-12-06T02:30:45.680Z,12.63
2018-12-06T02:33:16.455Z,7.47
2018-12-06T02:35:47.346Z,8.47
2018-12-06T02:38:18.214Z,8.10
2018-12-06T02:40:48.768Z,12.43
2018-12-06T02:43:20.009Z,17.57
2018-12-06T02:45:50.188Z,8.63
2018-12-06T02:48:27.009Z,9.00
2018-12-06T02:50:58.331Z,11.00
2018-12-06T02:53:29.685Z,16.43
2018-12-06T02:56:02.525Z,8.83
2018-12-06T02:58:34.383Z,11.93
2018-12-06T03:01:09.243Z,15.28
2018-12-06T03:03:46.236Z,16.57
2018-12-06T03:06:17.654Z,5.33
2018-12-06T03:08:50.445Z,8.37
2018-12-06T03:11:21.460Z,13.65
2018-12-06T03:13:54.495Z,15.93
2018-12-06T03:16:25.336Z,7.93
2018-12-06T03:18:57.509Z,9.53
2018-12-06T03:21:29.454Z,11.60
2018-12-06T03:24:06.396Z,11.23
2018-12-06T03:26:37.482Z,9.83
2018-12-06T03:29:16.384Z,8.03
2018-12-06T03:31:47.339Z,10.50
2018-12-06T03:34:17.474Z,11.37
2018-12-06T03:36:51.326Z,6.13
2018-12-06T03:39:22.547Z,12.35
2018-12-06T03:41:53.552Z,10.73
2018-12-06T03:44:33.322Z,11.83
2018-12-06T03:47:03.956Z,11.77
2018-12-06T03:49:34.701Z,9.70
2018-12-06T03:52:06.362Z,7.07
2018-12-06T03:54:37.775Z,7.77
2018-12-06T03:57:09.769Z,8.10
2018-12-06T03:59:43.382Z,8.63
2018-12-06T04:02:15.025Z,12.95
2018-12-06T04:04:47.706Z,28.15
2018-12-06T04:07:24.748Z,26.85
2018-12-06T04:09:57.674Z,19.20
2018-12-06T04:12:28.909Z,10.63
2018-12-06T04:14:59.430Z,8.03
2018-12-06T04:17:29.719Z,16.30
2018-12-06T04:20:00.605Z,8.27
2018-12-06T04:22:30.742Z,10.28
2018-12-06T04:25:05.033Z,8.27
2018-12-06T04:27:35.673Z,11.45
2018-12-06T04:30:08.790Z,10.20
2018-12-06T04:32:39.914Z,6.30
2018-12-06T04:35:10.816Z,11.03
2018-12-06T04:37:41.046Z,10.40
2018-12-06T04:40:11.956Z,11.93
2018-12-06T04:42:42.858Z,12.57
2018-12-06T04:45:16.412Z,16.80
2018-12-06T04:47:46.917Z,14.37
2018-12-06T04:50:23.685Z,17.17
2018-12-06T04:52:57.650Z,7.80
2018-12-06T04:55:29.041Z,11.60
2018-12-06T04:58:02.347Z,15.80
2018-12-06T05:00:35.062Z,7.70
2018-12-06T05:03:12.556Z,28.27
2018-12-06T05:05:43.826Z,14.70
2018-12-06T05:08:14.698Z,16.70
2018-12-06T05:10:44.764Z,10.40
2018-12-06T05:13:15.613Z,6.60
2018-12-06T05:15:45.973Z,13.10
2018-12-06T05:18:16.592Z,11.87
2018-12-06T05:20:47.229Z,14.47
2018-12-06T05:23:17.734Z,14.90
2018-12-06T05:25:48.335Z,10.67
2018-12-06T05:28:22.214Z,15.27
2018-12-06T05:30:52.985Z,21.27
2018-12-06T05:33:26.241Z,12.68
2018-12-06T05:35:57.063Z,15.33
2018-12-06T05:38:31.984Z,11.10
2018-12-06T05:41:04.852Z,8.90
2018-12-06T05:43:36.224Z,16.40
2018-12-06T05:46:09.034Z,21.97
2018-12-06T05:48:39.823Z,15.63
2018-12-06T05:51:10.325Z,14.00
2018-12-06T05:53:46.894Z,15.57
2018-12-06T05:56:18.427Z,16.83
2018-12-06T05:58:51.108Z,21.67
2018-12-06T06:01:23.997Z,21.95
2018-12-06T06:03:56.198Z,23.50
2018-12-06T06:06:27.219Z,15.07
2018-12-06T06:09:01.097Z,10.07
2018-12-06T06:11:31.594Z,16.53
2018-12-06T06:14:02.108Z,7.60
2018-12-06T06:16:32.450Z,15.30
2018-12-06T06:19:09.228Z,12.40
2018-12-06T06:21:46.069Z,12.40
2018-12-06T06:24:16.174Z,10.93
2018-12-06T06:26:47.283Z,14.93
2018-12-06T06:29:20.316Z,16.13
2018-12-06T06:31:51.384Z,15.07
2018-12-06T06:34:21.906Z,16.65
2018-12-06T06:36:52.490Z,18.80
2018-12-06T06:39:23.408Z,14.75
2018-12-06T06:41:53.769Z,10.18
2018-12-06T06:44:24.546Z,19.55
2018-12-06T06:46:54.666Z,13.30
2018-12-06T06:49:25.383Z,15.75
2018-12-06T06:51:57.327Z,15.50
2018-12-06T06:54:30.833Z,20.50
2018-12-06T06:57:03.511Z,21.60
2018-12-06T06:59:35.521Z,20.97
2018-12-06T07:02:08.561Z,13.05
2018-12-06T07:04:44.820Z,18.77
2018-12-06T07:07:15.666Z,12.73
2018-12-06T07:09:46.400Z,16.00
2018-12-06T07:12:20.416Z,15.93
2018-12-06T07:14:51.542Z,17.47
2018-12-06T07:17:24.601Z,13.10
2018-12-06T07:19:58.471Z,13.67
2018-12-06T07:22:31.477Z,17.53
2018-12-06T07:25:02.588Z,15.87
2018-12-06T07:27:35.573Z,15.33
2018-12-06T07:30:12.256Z,17.90
2018-12-06T07:32:41.294Z,17.87
2018-12-06T07:35:14.153Z,16.95
2018-12-06T07:37:44.864Z,13.07
2018-12-06T07:40:15.701Z,24.67
2018-12-06T07:42:46.025Z,14.63
2018-12-06T07:45:16.593Z,21.07
2018-12-06T07:47:52.387Z,17.73
2018-12-06T07:50:24.518Z,16.80
2018-12-06T07:52:54.572Z,19.40
2018-12-06T07:55:24.715Z,17.77
2018-12-06T07:57:58.585Z,17.87
2018-12-06T08:00:30.793Z,19.12
2018-12-06T08:03:03.505Z,19.42
2018-12-06T08:05:35.556Z,17.40
2018-12-06T08:08:07.848Z,17.00
2018-12-06T08:10:38.737Z,13.83
2018-12-06T08:13:12.740Z,17.07
2018-12-06T08:15:42.824Z,18.67
2018-12-06T08:18:13.772Z,19.37
2018-12-06T08:20:45.521Z,16.80
2018-12-06T08:23:15.682Z,18.23
2018-12-06T08:25:47.048Z,17.07
2018-12-06T08:28:18.930Z,10.27
2018-12-06T08:30:51.840Z,20.13
2018-12-06T08:33:23.948Z,17.10
2018-12-06T08:35:55.100Z,31.63
2018-12-06T08:38:25.420Z,16.33
2018-12-06T08:40:55.860Z,31.60
2018-12-06T08:43:26.549Z,22.03
2018-12-06T08:45:56.896Z,19.10
2018-12-06T08:48:31.561Z,42.70
2018-12-06T08:51:01.793Z,17.85
2018-12-06T08:53:32.087Z,27.37
2018-12-06T08:56:03.075Z,16.93
2018-12-06T08:58:40.812Z,21.83
2018-12-06T09:01:13.498Z,14.43
2018-12-06T09:03:43.894Z,22.57
2018-12-06T09:06:15.126Z,18.43
2018-12-06T09:08:45.385Z,18.83
2018-12-06T09:11:16.079Z,14.63
2018-12-06T09:13:46.998Z,14.10
2018-12-06T09:16:20.865Z,25.70
2018-12-06T09:18:57.940Z,18.03
2018-12-06T09:21:28.280Z,11.33
2018-12-06T09:24:00.087Z,24.70
2018-12-06T09:26:30.575Z,19.85
2018-12-06T09:29:03.065Z,20.80
2018-12-06T09:31:35.241Z,20.80
2018-12-06T09:34:11.449Z,20.17
2018-12-06T09:36:42.124Z,27.80
2018-12-06T09:39:12.789Z,22.90
2018-12-06T09:41:43.031Z,25.57
2018-12-06T09:44:13.192Z,17.70
2018-12-06T09:46:44.184Z,19.53
2018-12-06T09:49:15.058Z,19.63
2018-12-06T09:51:45.742Z,27.45
2018-12-06T09:54:19.869Z,21.37
2018-12-06T09:56:53.219Z,33.13
2018-12-06T09:59:23.717Z,12.27
2018-12-06T10:01:54.238Z,11.75
2018-12-06T10:04:25.248Z,23.10
2018-12-06T10:07:02.065Z,23.00
2018-12-06T10:09:32.269Z,34.23
2018-12-06T10:12:06.255Z,19.20
2018-12-06T10:18:11.392Z,21.83
2018-12-06T10:24:43.415Z,26.93
2018-12-06T10:27:14.305Z,20.77
2018-12-06T10:29:45.597Z,26.00
2018-12-06T10:32:18.159Z,26.03
2018-12-06T10:34:53.471Z,50.47
2018-12-06T10:37:23.516Z,23.10
2018-12-06T10:39:57.031Z,20.20
2018-12-06T10:42:27.572Z,29.33
2018-12-06T10:44:58.711Z,19.00
2018-12-06T10:47:31.788Z,34.08
2018-12-06T10:50:02.510Z,17.40
2018-12-06T10:52:32.697Z,43.25
2018-12-06T10:55:03.884Z,19.83
2018-12-06T10:57:34.550Z,23.07
2018-12-06T11:00:06.734Z,32.67
2018-12-06T11:02:43.984Z,27.00
2018-12-06T11:05:17.086Z,25.30
2018-12-06T11:07:49.701Z,34.50
2018-12-06T11:10:21.932Z,20.08
2018-12-06T11:12:54.416Z,25.00
2018-12-06T11:15:27.781Z,30.60
2018-12-06T11:17:58.893Z,21.80
2018-12-06T11:20:32.423Z,26.60
2018-12-06T11:23:02.907Z,26.40
2018-12-06T11:25:36.181Z,24.70
2018-12-06T11:28:08.423Z,29.18
2018-12-06T11:30:38.811Z,22.87
2018-12-06T11:33:12.501Z,20.70
2018-12-06T11:35:44.947Z,25.13
2018-12-06T11:38:15.881Z,32.30
2018-12-06T11:40:50.940Z,24.27
2018-12-06T11:43:28.990Z,29.60
2018-12-06T11:46:00.719Z,21.90
2018-12-06T11:48:31.964Z,37.80
2018-12-06T11:51:04.930Z,33.23
2018-12-06T11:53:35.674Z,27.33
2018-12-06T11:56:06.304Z,25.90
2018-12-06T11:58:37.116Z,31.77
2018-12-06T12:01:07.698Z,28.43
2018-12-06T12:03:40.409Z,35.90
2018-12-06T12:06:11.833Z,30.43
2018-12-06T12:08:47.444Z,18.67
2018-12-06T12:11:19.723Z,31.40
2018-12-06T12:13:49.820Z,24.07
2018-12-06T12:20:16.008Z,27.83
2018-12-06T12:22:49.850Z,19.83
2018-12-06T12:25:21.265Z,19.80
2018-12-06T12:27:51.962Z,25.33
2018-12-06T12:30:23.056Z,42.17
2018-12-06T12:32:55.845Z,23.47
2018-12-06T12:35:27.046Z,24.18
2018-12-06T12:41:52.506Z,35.90
2018-12-06T12:44:24.733Z,29.20
2018-12-06T12:46:57.493Z,39.80
2018-12-06T12:49:30.172Z,29.90
2018-12-06T12:52:01.188Z,30.30
2018-12-06T12:54:32.217Z,25.97
2018-12-06T12:57:08.517Z,23.23
2018-12-06T12:59:39.218Z,26.63
2018-12-06T13:02:10.053Z,27.37
2018-12-06T13:04:40.469Z,25.00
2018-12-06T13:07:13.372Z,33.23
2018-12-06T13:09:45.120Z,36.53
2018-12-06T13:12:18.803Z,29.07
2018-12-06T13:14:49.103Z,20.90
2018-12-06T13:17:20.498Z,36.90
2018-12-06T13:19:53.711Z,30.83
2018-12-06T13:22:24.334Z,29.80
2018-12-06T13:24:55.752Z,29.93
2018-12-06T13:27:26.324Z,34.27
2018-12-06T13:29:59.732Z,42.57
2018-12-06T13:32:30.715Z,30.70
2018-12-06T13:35:01.518Z,25.17
2018-12-06T13:37:32.148Z,30.57
2018-12-06T13:40:06.456Z,23.67
2018-12-06T13:42:37.143Z,45.08
2018-12-06T13:45:09.732Z,22.87
2018-12-06T13:47:41.077Z,26.60
2018-12-06T13:50:13.710Z,31.70
2018-12-06T13:52:45.492Z,31.27
2018-12-06T13:55:18.970Z,27.67
2018-12-06T13:57:51.659Z,42.43
2018-12-06T14:00:25.183Z,29.10
2018-12-06T14:02:57.039Z,30.72
2018-12-06T14:05:29.456Z,32.93
2018-12-06T14:08:00.556Z,36.77
2018-12-06T14:10:35.608Z,32.03
2018-12-06T14:13:07.856Z,29.63
2018-12-06T14:15:39.129Z,32.60
2018-12-06T14:18:12.322Z,35.00
2018-12-06T14:20:45.234Z,36.53
2018-12-06T14:23:15.854Z,32.03
2018-12-06T14:25:46.494Z,26.77
2018-12-06T14:28:21.638Z,29.57
2018-12-06T14:30:53.520Z,30.03
2018-12-06T14:33:24.933Z,35.13
2018-12-06T14:35:55.654Z,37.73
2018-12-06T14:38:27.985Z,27.77
2018-12-06T14:40:59.990Z,32.90
2018-12-06T14:43:31.036Z,30.50
2018-12-06T14:49:56.485Z,38.38
2018-12-06T14:52:28.161Z,44.83
2018-12-06T14:55:00.950Z,32.40
2018-12-06T14:57:31.921Z,41.50
2018-12-06T15:00:02.049Z,50.23
2018-12-06T15:02:32.570Z,35.50
2018-12-06T15:05:03.440Z,35.80
2018-12-06T15:07:35.783Z,41.87
2018-12-06T15:10:08.892Z,28.70
2018-12-06T15:12:40.013Z,43.28
2018-12-06T15:15:11.895Z,38.83
2018-12-06T15:17:45.887Z,34.83
2018-12-06T15:20:16.461Z,35.07
2018-12-06T15:22:46.814Z,37.53
2018-12-06T15:25:18.440Z,38.98
2018-12-06T15:27:51.791Z,31.50
2018-12-06T15:30:22.200Z,37.33
2018-12-06T15:32:52.705Z,49.23
2018-12-06T15:35:23.909Z,35.85
2018-12-06T15:37:56.881Z,36.83
2018-12-06T15:40:31.931Z,36.15
2018-12-06T15:43:03.474Z,45.43
2018-12-06T15:45:36.677Z,37.23
2018-12-06T15:48:09.470Z,46.03
2018-12-06T15:50:40.602Z,32.50
2018-12-06T15:53:11.229Z,39.87
2018-12-06T15:55:41.474Z,39.23
2018-12-06T15:58:12.333Z,38.13
2018-12-06T16:00:45.869Z,43.95
2018-12-06T16:03:16.056Z,35.95
2018-12-06T16:05:46.736Z,39.73
2018-12-06T16:08:18.309Z,34.67
2018-12-06T16:10:51.182Z,31.50
2018-12-06T16:13:29.700Z,33.73
2018-12-06T16:16:01.369Z,38.93
2018-12-06T16:18:32.159Z,50.53
2018-12-06T16:21:05.108Z,45.33
2018-12-06T16:23:36.181Z,45.03
2018-12-06T16:26:07.197Z,55.40
2018-12-06T16:28:40.296Z,52.38
2018-12-06T16:31:13.176Z,42.35
2018-12-06T16:33:45.851Z,36.77
2018-12-06T16:36:19.143Z,41.03
2018-12-06T16:38:52.130Z,29.73
2018-12-06T16:41:25.118Z,41.02
2018-12-06T16:44:06.036Z,42.40
2018-12-06T16:46:39.689Z,45.57
2018-12-06T16:49:12.504Z,38.23
2018-12-06T16:51:45.741Z,38.30
2018-12-06T16:57:54.273Z,34.77
2018-12-06T17:00:26.610Z,39.15
2018-12-06T17:02:58.323Z,40.33
2018-12-06T17:05:33.953Z,35.20
2018-12-06T17:08:10.887Z,41.93
2018-12-06T17:10:47.539Z,42.17
2018-12-06T17:13:20.990Z,41.67
2018-12-06T17:15:52.024Z,42.13
2018-12-06T17:18:23.753Z,59.90
2018-12-06T17:20:56.220Z,41.47
2018-12-06T17:23:29.981Z,43.93
2018-12-06T17:29:36.798Z,49.73
2018-12-06T17:32:07.537Z,49.48
2018-12-06T17:34:40.871Z,44.80
2018-12-06T17:37:11.259Z,47.43
2018-12-06T17:39:42.117Z,43.90
2018-12-06T17:42:12.872Z,44.75
2018-12-06T17:44:46.541Z,46.53
2018-12-06T17:47:19.903Z,47.88
2018-12-06T17:49:54.911Z,40.90
2018-12-06T17:52:30.130Z,43.90
2018-12-06T17:55:00.689Z,41.13
2018-12-06T17:57:31.874Z,37.90
2018-12-06T18:00:02.309Z,36.90
2018-12-06T18:02:32.827Z,35.60
2018-12-06T18:05:07.025Z,37.87
2018-12-06T18:07:37.827Z,37.80
2018-12-06T18:10:12.858Z,40.20
2018-12-06T18:12:45.977Z,36.47
2018-12-06T18:18:03.123Z,41.33
2018-12-06T18:20:35.455Z,38.33
2018-12-06T18:23:10.678Z,41.35
2018-12-06T18:25:44.311Z,40.00
2018-12-06T18:28:15.192Z,43.20
2018-12-06T18:30:50.257Z,34.73
2018-12-06T18:33:23.763Z,41.95
2018-12-06T18:35:56.471Z,40.83
2018-12-06T18:38:29.212Z,35.90
2018-12-06T18:41:00.479Z,42.47
2018-12-06T18:43:39.947Z,46.77
2018-12-06T18:46:11.470Z,46.53
2018-12-06T18:48:49.496Z,42.03
2018-12-06T18:51:20.226Z,44.80
2018-12-06T18:53:51.446Z,38.80
2018-12-06T18:56:24.199Z,40.23
2018-12-06T18:58:54.824Z,35.07
2018-12-06T19:01:25.771Z,41.25
2018-12-06T19:07:58.192Z,35.80
2018-12-06T19:10:29.626Z,34.17
2018-12-06T19:13:03.649Z,43.10
2018-12-06T19:15:53.697Z,47.60
2018-12-06T19:18:29.578Z,34.47
2018-12-06T19:21:01.209Z,38.50
2018-12-06T19:23:31.948Z,51.23
2018-12-06T19:26:04.522Z,45.47
2018-12-06T19:28:37.261Z,37.07
2018-12-06T19:31:09.578Z,33.60
2018-12-06T19:33:40.997Z,31.33
2018-12-06T19:36:18.841Z,32.23
2018-12-06T19:39:05.710Z,38.80
2018-12-06T19:41:36.281Z,36.40
2018-12-06T19:44:08.224Z,30.67
2018-12-06T19:46:39.343Z,40.50
2018-12-06T19:49:10.338Z,41.37
2018-12-06T19:51:45.098Z,39.77
2018-12-06T19:54:22.305Z,44.43
2018-12-06T19:57:00.208Z,41.47
2018-12-06T19:59:33.940Z,44.00
2018-12-06T20:02:04.310Z,42.13
2018-12-06T20:05:05.657Z,42.03
2018-12-06T20:07:40.131Z,33.97
2018-12-06T20:10:13.895Z,36.80
2018-12-06T20:12:55.263Z,33.67
2018-12-06T20:15:31.351Z,45.13
2018-12-06T20:18:02.520Z,34.50
2018-12-06T20:20:33.610Z,46.70
2018-12-06T20:23:07.774Z,35.93
2018-12-06T20:25:38.819Z,32.47
2018-12-06T20:28:11.906Z,40.57
2018-12-06T20:30:44.276Z,36.30
2018-12-06T20:33:20.512Z,40.93
2018-12-06T20:35:52.259Z,33.43
2018-12-06T20:38:26.617Z,42.17
2018-12-06T20:40:57.402Z,41.77
2018-12-06T20:43:28.987Z,29.35
2018-12-06T20:46:01.232Z,35.00
2018-12-06T20:48:32.893Z,40.10
2018-12-06T20:51:06.824Z,35.30
2018-12-06T20:53:43.513Z,34.87
2018-12-06T20:56:18.136Z,32.93
2018-12-06T20:58:58.350Z,38.07
2018-12-06T21:01:30.350Z,38.73
2018-12-06T21:04:04.340Z,30.57
2018-12-06T21:06:42.398Z,35.93
2018-12-06T21:09:18.764Z,35.85
2018-12-06T21:11:53.177Z,38.00
2018-12-06T21:14:29.164Z,30.50
2018-12-06T21:17:10.669Z,40.50
2018-12-06T21:19:42.623Z,39.53
2018-12-06T21:22:15.136Z,37.07
2018-12-06T21:24:51.561Z,35.10
2018-12-06T21:27:23.984Z,40.50
2018-12-06T21:30:00.271Z,34.30
2018-12-06T21:32:35.189Z,44.07
2018-12-06T21:35:08.767Z,36.57
2018-12-06T21:37:40.421Z,35.13
2018-12-06T21:40:13.912Z,40.50
2018-12-06T21:42:48.992Z,44.57
2018-12-06T21:45:23.694Z,41.80
2018-12-06T21:48:03.346Z,37.80
2018-12-06T21:50:40.016Z,34.90
2018-12-06T21:53:20.910Z,38.98
2018-12-06T21:55:52.948Z,36.93
2018-12-06T21:58:25.474Z,31.13
2018-12-06T22:01:22.219Z,40.77
2018-12-06T22:03:54.684Z,33.78
2018-12-06T22:06:29.157Z,50.80
2018-12-06T22:09:03.568Z,30.47
2018-12-06T22:11:43.210Z,36.27
2018-12-06T22:14:14.815Z,37.73
2018-12-06T22:16:52.453Z,34.53
2018-12-06T22:19:23.213Z,28.50
2018-12-06T22:21:57.468Z,30.63
2018-12-06T22:24:33.147Z,33.10
2018-12-06T22:27:04.692Z,34.10
2018-12-06T22:29:43.770Z,34.83
2018-12-06T22:32:16.937Z,33.77
2018-12-06T22:34:48.554Z,30.47
2018-12-06T22:37:21.837Z,36.43
2018-12-06T22:39:58.095Z,37.37
2018-12-06T22:42:30.395Z,41.30
2018-12-06T22:45:14.758Z,38.73
2018-12-06T22:51:29.014Z,35.20
2018-12-06T22:54:00.199Z,45.50
2018-12-06T22:56:31.791Z,33.40
2018-12-06T22:59:11.095Z,36.87
2018-12-06T23:01:50.599Z,35.77
2018-12-06T23:04:26.361Z,39.30
2018-12-06T23:07:28.904Z,34.93
2018-12-06T23:14:06.761Z,32.53
2018-12-06T23:16:38.796Z,32.93
2018-12-06T23:19:09.978Z,33.63
2018-12-06T23:21:52.253Z,33.33
2018-12-06T23:24:29.503Z,36.03
2018-12-06T23:27:08.361Z,35.90
2018-12-06T23:29:42.541Z,35.83
2018-12-06T23:32:17.035Z,30.80
2018-12-06T23:35:08.064Z,31.93
2018-12-06T23:37:39.869Z,35.83
2018-12-06T23:40:18.577Z,35.40
2018-12-06T23:42:54.918Z,35.23
2018-12-06T23:45:33.978Z,36.63
2018-12-06T23:48:17.347Z,37.93
2018-12-06T23:50:49.943Z,41.20
2018-12-06T23:53:33.883Z,34.60
2018-12-06T23:56:05.563Z,35.10
2018-12-06T23:58:40.900Z,33.13
